createdAt,value
2018-07-06T00:01:24.995Z,58.30
2018-07-06T00:03:39.484Z,58.30
2018-07-06T00:05:54.831Z,58.40
2018-07-06T00:08:09.255Z,58.40
2018-07-06T00:10:23.672Z,58.40
2018-07-06T00:12:38.918Z,58.50
2018-07-06T00:14:53.431Z,58.50
2018-07-06T00:17:07.950Z,58.60
2018-07-06T00:19:22.513Z,58.70
2018-07-06T00:21:37.429Z,59.40
2018-07-06T00:23:53.515Z,58.90
2018-07-06T00:26:08.046Z,58.80
2018-07-06T00:28:22.543Z,58.90
2018-07-06T00:30:37.152Z,58.90
2018-07-06T00:32:51.500Z,59.00
2018-07-06T00:35:06.105Z,59.10
2018-07-06T00:37:21.252Z,59.10
2018-07-06T00:39:35.880Z,59.10
2018-07-06T00:41:50.324Z,59.10
2018-07-06T00:44:05.688Z,59.20
2018-07-06T00:46:20.039Z,59.20
2018-07-06T00:48:34.617Z,59.20
2018-07-06T00:50:49.130Z,59.90
2018-07-06T00:53:04.225Z,59.40
2018-07-06T00:55:18.780Z,59.30
2018-07-06T00:57:33.983Z,58.90
2018-07-06T00:59:48.498Z,59.40
2018-07-06T01:02:03.002Z,59.40
2018-07-06T01:04:17.428Z,59.40
2018-07-06T01:06:32.213Z,59.50
2018-07-06T01:08:46.899Z,59.50
2018-07-06T01:11:01.527Z,59.50
2018-07-06T01:13:15.874Z,59.50
2018-07-06T01:15:30.358Z,59.50
2018-07-06T01:17:44.826Z,59.50
2018-07-06T01:19:59.409Z,59.50
2018-07-06T01:22:14.729Z,59.50
2018-07-06T01:24:30.185Z,59.50
2018-07-06T01:26:44.737Z,59.40
2018-07-06T01:28:59.158Z,59.40
2018-07-06T01:31:13.543Z,59.40
2018-07-06T01:33:28.058Z,59.40
2018-07-06T01:35:43.440Z,59.40
2018-07-06T01:37:57.845Z,59.40
2018-07-06T01:40:12.349Z,59.40
2018-07-06T01:42:26.789Z,59.40
2018-07-06T01:44:41.342Z,59.50
2018-07-06T01:46:55.711Z,59.40
2018-07-06T01:49:11.637Z,59.50
2018-07-06T01:51:26.807Z,59.50
2018-07-06T01:53:42.033Z,59.50
2018-07-06T01:55:56.400Z,59.50
2018-07-06T01:58:10.670Z,59.40
2018-07-06T02:00:25.070Z,59.40
2018-07-06T02:02:39.521Z,59.40
2018-07-06T02:04:54.015Z,59.40
2018-07-06T02:07:09.081Z,59.60
2018-07-06T02:09:23.789Z,59.50
2018-07-06T02:11:38.265Z,59.50
2018-07-06T02:13:52.801Z,59.40
2018-07-06T02:16:07.457Z,59.40
2018-07-06T02:18:21.942Z,59.40
2018-07-06T02:20:36.457Z,59.40
2018-07-06T02:22:50.868Z,59.40
2018-07-06T02:25:05.297Z,59.50
2018-07-06T02:27:19.851Z,59.50
2018-07-06T02:29:34.277Z,59.40
2018-07-06T02:31:48.830Z,59.50
2018-07-06T02:34:03.214Z,59.50
2018-07-06T02:36:18.504Z,59.60
2018-07-06T02:38:32.930Z,59.50
2018-07-06T02:40:47.382Z,59.50
2018-07-06T02:43:02.006Z,59.50
2018-07-06T02:45:17.278Z,59.50
2018-07-06T02:47:31.863Z,59.50
2018-07-06T02:49:46.140Z,59.60
2018-07-06T02:52:00.561Z,59.50
2018-07-06T02:54:14.943Z,59.50
2018-07-06T02:56:29.569Z,59.50
2018-07-06T02:58:44.050Z,59.60
2018-07-06T03:00:58.701Z,59.60
2018-07-06T03:03:13.918Z,59.60
2018-07-06T03:05:28.289Z,59.70
2018-07-06T03:07:42.862Z,59.60
2018-07-06T03:09:58.098Z,59.80
2018-07-06T03:12:12.554Z,59.70
2018-07-06T03:14:26.951Z,59.80
2018-07-06T03:16:41.455Z,59.90
2018-07-06T03:18:56.013Z,59.90
2018-07-06T03:21:10.446Z,60.00
2018-07-06T03:23:25.106Z,60.10
2018-07-06T03:25:39.561Z,60.20
2018-07-06T03:27:54.012Z,60.20
2018-07-06T03:30:09.291Z,60.30
2018-07-06T03:32:23.581Z,60.30
2018-07-06T03:34:38.690Z,60.30
2018-07-06T03:36:53.474Z,60.20
2018-07-06T03:39:07.934Z,60.20
2018-07-06T03:41:22.320Z,60.30
2018-07-06T03:43:37.017Z,60.50
2018-07-06T03:45:51.495Z,60.80
2018-07-06T03:48:06.035Z,61.00
2018-07-06T03:50:21.298Z,61.20
2018-07-06T03:52:35.791Z,61.00
2018-07-06T03:54:50.172Z,61.10
2018-07-06T03:57:05.679Z,61.10
2018-07-06T03:59:20.061Z,61.00
2018-07-06T04:01:34.494Z,61.20
2018-07-06T04:03:48.837Z,61.00
2018-07-06T04:06:03.278Z,61.10
2018-07-06T04:08:17.837Z,61.00
2018-07-06T04:10:32.454Z,61.10
2018-07-06T04:12:46.954Z,62.00
2018-07-06T04:15:01.604Z,61.30
2018-07-06T04:17:16.315Z,61.30
2018-07-06T04:19:31.639Z,61.30
2018-07-06T04:21:46.076Z,61.30
2018-07-06T04:24:00.554Z,61.40
2018-07-06T04:26:15.221Z,61.50
2018-07-06T04:28:30.420Z,61.50
2018-07-06T04:30:45.753Z,61.60
2018-07-06T04:33:00.174Z,61.40
2018-07-06T04:35:14.579Z,61.50
2018-07-06T04:37:29.797Z,61.70
2018-07-06T04:39:44.192Z,61.60
2018-07-06T04:41:59.250Z,61.80
2018-07-06T04:44:14.718Z,61.90
2018-07-06T04:46:29.263Z,61.80
2018-07-06T04:48:43.631Z,61.90
2018-07-06T04:50:58.116Z,62.00
2018-07-06T04:53:12.637Z,62.00
2018-07-06T04:55:27.029Z,62.20
2018-07-06T04:57:41.518Z,62.20
2018-07-06T04:59:56.141Z,62.20
2018-07-06T05:02:11.426Z,62.40
2018-07-06T05:04:27.126Z,62.40
2018-07-06T05:06:41.624Z,63.10
2018-07-06T05:08:56.070Z,62.40
2018-07-06T05:11:11.225Z,62.40
2018-07-06T05:13:26.415Z,62.30
2018-07-06T05:15:41.490Z,62.30
2018-07-06T05:17:55.891Z,62.30
2018-07-06T05:20:10.417Z,62.20
2018-07-06T05:22:25.803Z,62.30
2018-07-06T05:24:41.082Z,62.20
2018-07-06T05:26:55.477Z,62.10
2018-07-06T05:29:10.752Z,61.90
2018-07-06T05:31:26.475Z,61.80
2018-07-06T05:33:40.834Z,61.70
2018-07-06T05:35:55.337Z,61.80
2018-07-06T05:38:09.777Z,61.70
2018-07-06T05:40:25.140Z,61.30
2018-07-06T05:42:39.479Z,61.20
2018-07-06T05:44:55.337Z,60.90
2018-07-06T05:47:09.918Z,60.80
2018-07-06T05:49:24.209Z,60.70
2018-07-06T05:51:39.008Z,60.70
2018-07-06T05:53:53.514Z,60.80
2018-07-06T05:56:07.881Z,60.90
2018-07-06T05:58:22.337Z,60.80
2018-07-06T06:00:36.852Z,60.80
2018-07-06T06:02:52.127Z,60.60
2018-07-06T06:05:07.294Z,60.10
2018-07-06T06:07:19.210Z,59.70
2018-07-06T06:09:22.516Z,59.90
2018-07-06T06:11:26.041Z,59.00
2018-07-06T06:13:28.630Z,58.90
2018-07-06T06:15:31.278Z,58.80
2018-07-06T06:17:33.863Z,58.70
2018-07-06T06:19:36.429Z,58.50
2018-07-06T06:21:38.966Z,58.00
2018-07-06T06:23:41.878Z,57.70
2018-07-06T06:25:44.428Z,57.70
2018-07-06T06:27:46.997Z,57.40
2018-07-06T06:29:50.322Z,56.90
2018-07-06T06:31:52.889Z,56.90
2018-07-06T06:33:55.503Z,56.70
2018-07-06T06:35:58.359Z,56.50
2018-07-06T06:38:00.924Z,56.30
2018-07-06T06:40:03.493Z,56.20
2018-07-06T06:42:06.052Z,56.10
2018-07-06T06:44:08.600Z,55.80
2018-07-06T06:46:11.139Z,56.00
2018-07-06T06:48:14.102Z,55.70
2018-07-06T06:50:16.661Z,55.30
2018-07-06T06:52:19.226Z,55.10
2018-07-06T06:54:21.810Z,55.10
2018-07-06T06:56:24.361Z,54.90
2018-07-06T06:58:26.922Z,54.80
2018-07-06T07:00:30.365Z,54.10
2018-07-06T07:02:32.925Z,54.10
2018-07-06T07:04:35.477Z,53.90
2018-07-06T07:06:38.077Z,53.60
2018-07-06T07:08:40.625Z,53.40
2018-07-06T07:10:43.190Z,53.20
2018-07-06T07:12:45.804Z,53.20
2018-07-06T07:14:48.411Z,53.00
2018-07-06T07:16:51.778Z,52.90
2018-07-06T07:18:54.547Z,52.80
2018-07-06T07:20:57.113Z,53.00
2018-07-06T07:22:59.661Z,53.10
2018-07-06T07:25:02.250Z,52.90
2018-07-06T07:27:05.034Z,52.80
2018-07-06T07:29:07.590Z,52.90
2018-07-06T07:31:10.173Z,52.80
2018-07-06T07:33:12.726Z,52.60
2018-07-06T07:35:15.286Z,52.20
2018-07-06T07:37:19.063Z,51.70
2018-07-06T07:39:21.597Z,51.70
2018-07-06T07:41:24.199Z,51.60
2018-07-06T07:43:26.772Z,51.70
2018-07-06T07:45:29.314Z,51.60
2018-07-06T07:47:31.931Z,51.30
2018-07-06T07:49:34.485Z,51.10
2018-07-06T07:51:57.800Z,50.80
2018-07-06T07:56:30.934Z,50.90
2018-07-06T07:58:33.509Z,49.90
2018-07-06T08:00:36.075Z,49.70
2018-07-06T08:02:38.732Z,49.70
2018-07-06T08:04:41.336Z,49.90
2018-07-06T08:06:44.030Z,49.90
2018-07-06T08:08:46.595Z,49.70
2018-07-06T08:10:49.152Z,49.50
2018-07-06T08:12:51.717Z,49.10
2018-07-06T08:14:54.613Z,48.70
2018-07-06T08:16:57.210Z,48.70
2018-07-06T08:18:59.760Z,48.70
2018-07-06T08:21:02.404Z,48.40
2018-07-06T08:23:04.959Z,47.30
2018-07-06T08:25:07.577Z,46.80
2018-07-06T08:27:10.359Z,46.60
2018-07-06T08:29:12.923Z,46.40
2018-07-06T08:31:15.466Z,45.90
2018-07-06T08:33:18.049Z,45.60
2018-07-06T08:35:42.298Z,45.30
2018-07-06T08:37:52.565Z,45.20
2018-07-06T08:39:55.937Z,45.50
2018-07-06T08:41:58.482Z,45.50
2018-07-06T08:44:01.041Z,45.50
2018-07-06T08:46:04.062Z,45.40
2018-07-06T08:48:06.654Z,45.10
2018-07-06T08:50:10.016Z,44.70
2018-07-06T08:52:12.781Z,44.60
2018-07-06T08:54:15.321Z,44.70
2018-07-06T08:56:17.870Z,44.70
2018-07-06T08:58:21.688Z,44.70
2018-07-06T09:00:24.178Z,44.60
2018-07-06T09:02:26.768Z,44.70
2018-07-06T09:04:29.377Z,44.30
2018-07-06T09:06:31.950Z,44.20
2018-07-06T09:08:34.479Z,44.40
2018-07-06T09:10:37.074Z,44.60
2018-07-06T09:12:39.679Z,44.80
2018-07-06T09:14:43.751Z,44.70
2018-07-06T09:16:46.443Z,44.70
2018-07-06T09:18:48.978Z,44.80
2018-07-06T09:20:51.534Z,44.90
2018-07-06T09:22:54.242Z,45.00
2018-07-06T09:24:56.801Z,44.90
2018-07-06T09:26:59.424Z,44.90
2018-07-06T09:29:02.782Z,44.40
2018-07-06T09:31:05.363Z,44.80
2018-07-06T09:33:07.914Z,44.40
2018-07-06T09:35:10.618Z,44.20
2018-07-06T09:37:13.456Z,43.90
2018-07-06T09:39:15.753Z,43.80
2018-07-06T09:41:18.325Z,43.90
2018-07-06T09:43:20.885Z,44.00
2018-07-06T09:45:24.298Z,43.90
2018-07-06T09:47:26.871Z,43.80
2018-07-06T09:49:29.426Z,43.60
2018-07-06T09:51:32.045Z,43.60
2018-07-06T09:53:34.686Z,43.40
2018-07-06T09:55:37.239Z,43.40
2018-07-06T09:57:39.792Z,43.40
2018-07-06T09:59:43.129Z,43.20
2018-07-06T10:01:45.677Z,43.10
2018-07-06T10:03:48.265Z,42.90
2018-07-06T10:05:51.636Z,42.90
2018-07-06T10:07:54.377Z,42.90
2018-07-06T10:09:57.733Z,42.60
2018-07-06T10:12:00.411Z,42.60
2018-07-06T10:14:02.966Z,42.60
2018-07-06T10:16:05.672Z,42.50
2018-07-06T10:18:08.245Z,42.50
2018-07-06T10:20:10.806Z,42.50
2018-07-06T10:22:13.369Z,42.80
2018-07-06T10:24:15.949Z,42.40
2018-07-06T10:26:18.513Z,42.00
2018-07-06T10:28:21.062Z,41.60
2018-07-06T10:30:24.006Z,41.30
2018-07-06T10:32:28.206Z,40.00
2018-07-06T10:34:30.761Z,39.90
2018-07-06T10:36:34.366Z,39.10
2018-07-06T10:38:36.923Z,39.00
2018-07-06T10:40:39.468Z,38.80
2018-07-06T10:42:42.085Z,38.60
2018-07-06T10:44:44.693Z,38.60
2018-07-06T10:46:48.013Z,38.50
2018-07-06T10:48:50.582Z,38.40
2018-07-06T10:50:53.138Z,38.20
2018-07-06T10:52:56.456Z,38.00
2018-07-06T10:54:59.060Z,38.00
2018-07-06T10:57:01.608Z,38.00
2018-07-06T10:59:04.153Z,38.20
2018-07-06T11:01:07.617Z,38.30
2018-07-06T11:03:10.230Z,38.30
2018-07-06T11:05:12.900Z,38.30
2018-07-06T11:07:16.360Z,38.50
2018-07-06T11:09:18.932Z,38.50
2018-07-06T11:11:21.482Z,38.50
2018-07-06T11:13:24.062Z,38.50
2018-07-06T11:15:26.617Z,38.50
2018-07-06T11:17:29.214Z,38.60
2018-07-06T11:19:31.995Z,38.80
2018-07-06T11:21:34.561Z,38.90
2018-07-06T11:23:37.116Z,38.90
2018-07-06T11:25:40.515Z,38.60
2018-07-06T11:27:43.106Z,38.60
2018-07-06T11:29:45.680Z,38.60
2018-07-06T11:31:48.305Z,38.70
2018-07-06T11:33:51.623Z,38.80
2018-07-06T11:35:54.177Z,38.80
2018-07-06T11:37:56.806Z,38.80
2018-07-06T11:39:59.392Z,38.90
2018-07-06T11:42:01.946Z,39.00
2018-07-06T11:44:04.744Z,39.00
2018-07-06T11:46:07.278Z,39.10
2018-07-06T11:48:09.833Z,39.20
2018-07-06T11:50:12.536Z,39.30
2018-07-06T11:52:15.115Z,39.30
2018-07-06T11:54:17.685Z,39.50
2018-07-06T11:56:20.264Z,39.60
2018-07-06T11:58:22.870Z,39.70
2018-07-06T12:00:25.372Z,39.80
2018-07-06T12:02:28.702Z,39.80
2018-07-06T12:04:31.305Z,39.80
2018-07-06T12:06:33.800Z,39.90
2018-07-06T12:08:36.845Z,39.90
2018-07-06T12:10:39.534Z,39.80
2018-07-06T12:12:42.086Z,39.60
2018-07-06T12:14:44.779Z,39.70
2018-07-06T12:16:47.314Z,39.80
2018-07-06T12:18:49.872Z,39.70
2018-07-06T12:20:52.475Z,39.70
2018-07-06T12:22:55.028Z,39.80
2018-07-06T12:24:57.605Z,39.90
2018-07-06T12:27:00.508Z,39.80
2018-07-06T12:29:03.078Z,39.70
2018-07-06T12:31:05.617Z,39.50
2018-07-06T12:33:08.557Z,39.40
2018-07-06T12:35:11.094Z,39.30
2018-07-06T12:37:13.713Z,39.20
2018-07-06T12:39:17.405Z,39.40
2018-07-06T12:41:19.968Z,39.30
2018-07-06T12:43:22.493Z,39.20
2018-07-06T12:45:25.078Z,39.30
2018-07-06T12:47:27.673Z,39.40
2018-07-06T12:49:30.218Z,39.40
2018-07-06T12:51:32.820Z,39.10
2018-07-06T12:53:35.402Z,38.50
2018-07-06T12:55:37.968Z,38.40
2018-07-06T12:57:40.538Z,37.90
2018-07-06T12:59:43.114Z,37.60
2018-07-06T13:01:45.663Z,37.20
2018-07-06T13:03:48.242Z,37.00
2018-07-06T13:05:50.917Z,36.80
2018-07-06T13:07:53.638Z,36.60
2018-07-06T13:09:56.310Z,36.40
2018-07-06T13:11:58.851Z,36.30
2018-07-06T13:14:02.218Z,36.20
2018-07-06T13:16:04.998Z,36.00
2018-07-06T13:18:08.190Z,36.20
2018-07-06T13:20:10.782Z,36.40
2018-07-06T13:22:13.562Z,36.50
2018-07-06T13:24:16.109Z,36.50
2018-07-06T13:26:18.663Z,36.60
2018-07-06T13:28:22.301Z,36.60
2018-07-06T13:30:24.853Z,36.60
2018-07-06T13:32:27.448Z,36.50
2018-07-06T13:34:30.163Z,36.30
2018-07-06T13:36:32.735Z,36.10
2018-07-06T13:38:35.273Z,35.90
2018-07-06T13:40:37.838Z,35.90
2018-07-06T13:42:40.562Z,35.80
2018-07-06T13:44:43.199Z,35.80
2018-07-06T13:46:45.830Z,35.90
2018-07-06T13:48:48.386Z,35.70
2018-07-06T13:50:50.926Z,35.60
2018-07-06T13:52:53.545Z,35.60
2018-07-06T13:54:56.105Z,35.50
2018-07-06T13:56:59.423Z,35.40
2018-07-06T13:59:02.210Z,35.30
2018-07-06T14:01:04.693Z,35.10
2018-07-06T14:03:07.252Z,34.90
2018-07-06T14:05:09.869Z,34.60
2018-07-06T14:07:12.393Z,34.50
2018-07-06T14:09:15.000Z,34.40
2018-07-06T14:11:17.681Z,34.20
2018-07-06T14:13:20.357Z,34.10
2018-07-06T14:15:22.961Z,33.70
2018-07-06T14:17:25.747Z,33.40
2018-07-06T14:19:28.303Z,33.30
2018-07-06T14:21:30.965Z,33.20
2018-07-06T14:23:33.945Z,33.00
2018-07-06T14:25:36.571Z,32.60
2018-07-06T14:27:39.890Z,32.00
2018-07-06T14:29:42.489Z,32.00
2018-07-06T14:31:45.039Z,31.70
2018-07-06T14:33:47.594Z,31.50
2018-07-06T14:35:50.339Z,31.60
2018-07-06T14:37:52.982Z,31.60
2018-07-06T14:39:55.525Z,31.40
2018-07-06T14:41:58.310Z,31.40
2018-07-06T14:44:00.856Z,31.20
2018-07-06T14:46:03.497Z,30.70
2018-07-06T14:48:06.082Z,30.40
2018-07-06T14:50:09.473Z,30.40
2018-07-06T14:52:12.065Z,30.00
2018-07-06T14:54:15.409Z,30.00
2018-07-06T14:56:18.058Z,30.00
2018-07-06T14:58:20.635Z,29.90
2018-07-06T15:00:23.230Z,29.80
2018-07-06T15:02:26.590Z,29.60
2018-07-06T15:04:29.334Z,29.50
2018-07-06T15:06:31.928Z,29.10
2018-07-06T15:08:34.476Z,28.70
2018-07-06T15:10:37.095Z,29.20
2018-07-06T15:12:39.656Z,28.60
2018-07-06T15:14:42.149Z,28.60
2018-07-06T15:16:44.706Z,28.60
2018-07-06T15:18:47.448Z,28.50
2018-07-06T15:20:51.660Z,28.30
2018-07-06T15:22:54.198Z,28.20
2018-07-06T15:24:56.816Z,28.10
2018-07-06T15:26:59.325Z,28.00
2018-07-06T15:29:01.882Z,28.20
2018-07-06T15:31:04.469Z,28.30
2018-07-06T15:33:07.043Z,28.30
2018-07-06T15:35:09.626Z,28.10
2018-07-06T15:37:12.335Z,28.20
2018-07-06T15:39:14.989Z,28.30
2018-07-06T15:41:17.539Z,28.30
2018-07-06T15:43:20.136Z,28.40
2018-07-06T15:45:22.850Z,28.40
2018-07-06T15:47:25.399Z,28.20
2018-07-06T15:49:27.970Z,28.00
2018-07-06T15:51:30.575Z,28.00
2018-07-06T15:53:33.171Z,28.30
2018-07-06T15:55:35.746Z,28.40
2018-07-06T15:57:38.298Z,28.60
2018-07-06T15:59:41.614Z,29.10
2018-07-06T16:01:44.462Z,29.00
2018-07-06T16:03:47.036Z,29.30
2018-07-06T16:05:49.574Z,29.50
2018-07-06T16:07:52.563Z,29.80
2018-07-06T16:09:55.114Z,30.00
2018-07-06T16:11:57.670Z,30.00
2018-07-06T16:14:00.287Z,30.00
2018-07-06T16:16:02.827Z,30.00
2018-07-06T16:18:05.378Z,30.10
2018-07-06T16:20:07.992Z,30.10
2018-07-06T16:22:10.594Z,30.20
2018-07-06T16:24:13.165Z,30.20
2018-07-06T16:26:15.746Z,30.20
2018-07-06T16:28:18.294Z,30.30
2018-07-06T16:30:20.862Z,30.40
2018-07-06T16:32:23.643Z,30.40
2018-07-06T16:34:26.187Z,30.10
2018-07-06T16:36:28.734Z,30.00
2018-07-06T16:38:32.182Z,29.70
2018-07-06T16:40:34.765Z,29.60
2018-07-06T16:42:38.255Z,29.70
2018-07-06T16:44:40.830Z,29.60
2018-07-06T16:46:43.379Z,29.60
2018-07-06T16:48:45.935Z,29.60
2018-07-06T16:50:48.577Z,29.70
2018-07-06T16:52:51.233Z,29.60
2018-07-06T16:54:53.785Z,29.60
2018-07-06T16:56:56.397Z,30.20
2018-07-06T16:58:58.936Z,30.00
2018-07-06T17:01:01.518Z,30.00
2018-07-06T17:03:04.612Z,30.00
2018-07-06T17:05:07.151Z,30.20
2018-07-06T17:07:09.748Z,31.80
2018-07-06T17:09:12.320Z,31.40
2018-07-06T17:11:14.869Z,30.90
2018-07-06T17:13:17.457Z,31.10
2018-07-06T17:15:20.176Z,31.20
2018-07-06T17:17:22.716Z,30.80
2018-07-06T17:19:25.306Z,30.80
2018-07-06T17:21:28.000Z,31.10
2018-07-06T17:23:30.536Z,30.80
2018-07-06T17:25:33.089Z,30.80
2018-07-06T17:27:35.703Z,30.80
2018-07-06T17:29:38.290Z,31.10
2018-07-06T17:31:40.970Z,31.00
2018-07-06T17:33:45.162Z,32.10
2018-07-06T17:35:47.718Z,32.00
2018-07-06T17:37:50.274Z,31.80
2018-07-06T17:39:52.865Z,31.30
2018-07-06T17:41:55.443Z,31.30
2018-07-06T17:43:58.026Z,31.60
2018-07-06T17:46:00.615Z,31.20
2018-07-06T17:48:03.174Z,31.10
2018-07-06T17:50:05.747Z,31.00
2018-07-06T17:52:08.314Z,30.90
2018-07-06T17:54:10.866Z,30.70
2018-07-06T17:56:13.433Z,30.40
2018-07-06T17:58:16.018Z,30.40
2018-07-06T18:00:18.568Z,30.60
2018-07-06T18:02:21.197Z,30.60
2018-07-06T18:04:23.759Z,30.60
2018-07-06T18:06:26.424Z,30.70
2018-07-06T18:08:28.987Z,30.80
2018-07-06T18:10:31.695Z,30.80
2018-07-06T18:12:34.233Z,31.70
2018-07-06T18:14:36.786Z,32.10
2018-07-06T18:16:39.390Z,32.50
2018-07-06T18:18:41.934Z,32.70
2018-07-06T18:20:44.477Z,32.50
2018-07-06T18:22:48.070Z,32.60
2018-07-06T18:24:50.634Z,32.50
2018-07-06T18:26:53.290Z,32.20
2018-07-06T18:28:56.083Z,32.30
2018-07-06T18:30:58.689Z,32.90
2018-07-06T18:33:01.252Z,32.50
2018-07-06T18:35:04.589Z,32.70
2018-07-06T18:37:07.178Z,32.70
2018-07-06T18:39:09.753Z,32.60
2018-07-06T18:41:12.339Z,32.40
2018-07-06T18:43:14.894Z,32.40
2018-07-06T18:45:17.443Z,32.70
2018-07-06T18:47:20.074Z,32.90
2018-07-06T18:49:22.621Z,32.60
2018-07-06T18:51:25.229Z,32.60
2018-07-06T18:53:28.567Z,33.50
2018-07-06T18:55:31.107Z,33.40
2018-07-06T18:57:35.014Z,33.20
2018-07-06T18:59:37.623Z,33.20
2018-07-06T19:01:40.213Z,33.20
2018-07-06T19:03:42.757Z,33.20
2018-07-06T19:05:45.333Z,33.80
2018-07-06T19:07:48.061Z,33.90
2018-07-06T19:09:50.593Z,33.70
2018-07-06T19:11:53.482Z,34.20
2018-07-06T19:13:56.094Z,34.40
2018-07-06T19:15:58.659Z,34.20
2018-07-06T19:18:01.308Z,34.30
2018-07-06T19:20:03.996Z,34.10
2018-07-06T19:22:06.558Z,33.90
2018-07-06T19:24:09.177Z,33.80
2018-07-06T19:26:12.485Z,33.80
2018-07-06T19:28:15.127Z,33.80
2018-07-06T19:30:17.874Z,34.00
2018-07-06T19:32:21.024Z,34.10
2018-07-06T19:34:23.974Z,34.20
2018-07-06T19:36:27.573Z,34.10
2018-07-06T19:38:30.946Z,34.70
2018-07-06T19:40:33.489Z,34.70
2018-07-06T19:42:36.625Z,34.70
2018-07-06T19:44:39.153Z,34.90
2018-07-06T19:46:41.872Z,34.70
2018-07-06T19:48:44.490Z,34.80
2018-07-06T19:50:47.081Z,35.10
2018-07-06T19:52:49.631Z,35.10
2018-07-06T19:54:52.300Z,35.10
2018-07-06T19:56:54.861Z,35.50
2018-07-06T19:58:58.230Z,35.80
2018-07-06T20:01:01.254Z,35.70
2018-07-06T20:03:04.098Z,35.50
2018-07-06T20:05:06.747Z,35.50
2018-07-06T20:07:09.555Z,35.50
2018-07-06T20:09:13.159Z,35.70
2018-07-06T20:11:15.846Z,35.60
2018-07-06T20:13:19.471Z,35.80
2018-07-06T20:15:22.870Z,35.80
2018-07-06T20:17:25.508Z,35.80
2018-07-06T20:19:29.100Z,36.30
2018-07-06T20:21:32.480Z,36.10
2018-07-06T20:23:35.308Z,36.10
2018-07-06T20:25:37.899Z,36.20
2018-07-06T20:27:40.815Z,36.30
2018-07-06T20:29:44.094Z,36.50
2018-07-06T20:31:46.658Z,36.60
2018-07-06T20:33:49.204Z,37.00
2018-07-06T20:35:51.929Z,37.10
2018-07-06T20:37:55.442Z,37.00
2018-07-06T20:39:58.776Z,37.30
2018-07-06T20:42:01.610Z,37.30
2018-07-06T20:44:05.022Z,37.30
2018-07-06T20:46:07.666Z,37.30
2018-07-06T20:48:10.246Z,37.50
2018-07-06T20:50:14.146Z,37.70
2018-07-06T20:52:16.779Z,37.70
2018-07-06T20:54:19.361Z,37.80
2018-07-06T20:56:22.317Z,37.90
2018-07-06T20:58:25.256Z,38.00
2018-07-06T21:00:27.882Z,38.00
2018-07-06T21:02:30.466Z,38.10
2018-07-06T21:04:33.081Z,38.10
2018-07-06T21:06:36.551Z,38.20
2018-07-06T21:08:39.542Z,38.10
2018-07-06T21:10:42.176Z,38.20
2018-07-06T21:12:44.637Z,38.40
2018-07-06T21:14:47.242Z,38.40
2018-07-06T21:16:49.793Z,38.60
2018-07-06T21:18:52.350Z,38.60
2018-07-06T21:20:54.942Z,38.80
2018-07-06T21:22:57.876Z,38.90
2018-07-06T21:25:01.247Z,39.40
2018-07-06T21:27:03.902Z,39.10
2018-07-06T21:29:06.498Z,39.20
2018-07-06T21:31:09.090Z,39.30
2018-07-06T21:33:11.654Z,39.30
2018-07-06T21:35:14.218Z,39.50
2018-07-06T21:37:16.753Z,39.50
2018-07-06T21:39:19.326Z,39.60
2018-07-06T21:41:21.921Z,39.70
2018-07-06T21:43:24.476Z,39.70
2018-07-06T21:45:27.488Z,39.80
2018-07-06T21:47:30.030Z,39.90
2018-07-06T21:49:32.660Z,40.00
2018-07-06T21:51:35.621Z,40.00
2018-07-06T21:53:38.181Z,40.10
2018-07-06T21:55:40.794Z,40.20
2018-07-06T21:57:43.383Z,40.30
2018-07-06T21:59:46.726Z,40.40
2018-07-06T22:01:49.300Z,40.40
2018-07-06T22:03:51.878Z,40.50
2018-07-06T22:05:54.429Z,40.50
2018-07-06T22:07:57.040Z,41.30
2018-07-06T22:09:59.602Z,40.90
2018-07-06T22:12:02.158Z,41.10
2018-07-06T22:14:04.742Z,41.10
2018-07-06T22:16:07.722Z,41.20
2018-07-06T22:18:10.296Z,41.30
2018-07-06T22:20:12.849Z,41.30
2018-07-06T22:22:15.447Z,41.40
2018-07-06T22:24:18.006Z,41.50
2018-07-06T22:26:20.553Z,41.70
2018-07-06T22:28:23.179Z,41.80
2018-07-06T22:30:27.236Z,41.90
2018-07-06T22:32:29.923Z,41.80
2018-07-06T22:34:32.660Z,41.90
2018-07-06T22:36:35.194Z,42.00
2018-07-06T22:38:38.553Z,42.30
2018-07-06T22:40:41.179Z,42.30
2018-07-06T22:42:43.768Z,42.40
2018-07-06T22:44:46.335Z,42.60
2018-07-06T22:46:48.889Z,42.60
2018-07-06T22:48:51.501Z,42.80
2018-07-06T22:50:54.853Z,42.30
2018-07-06T22:52:57.457Z,42.70
2018-07-06T22:55:00.107Z,42.80
2018-07-06T22:57:02.677Z,42.90
2018-07-06T22:59:05.282Z,42.80
2018-07-06T23:01:08.674Z,43.00
2018-07-06T23:03:12.005Z,43.00
2018-07-06T23:05:14.643Z,43.00
2018-07-06T23:07:17.158Z,43.00
2018-07-06T23:09:19.714Z,43.00
2018-07-06T23:11:22.290Z,43.10
2018-07-06T23:13:24.895Z,43.10
2018-07-06T23:15:27.478Z,43.20
2018-07-06T23:17:30.171Z,43.10
2018-07-06T23:19:32.723Z,43.20
2018-07-06T23:21:35.295Z,43.20
2018-07-06T23:23:37.853Z,43.80
2018-07-06T23:25:40.546Z,43.30
2018-07-06T23:27:43.091Z,43.40
2018-07-06T23:29:46.413Z,43.30
2018-07-06T23:31:48.964Z,43.30
2018-07-06T23:33:51.554Z,43.40
2018-07-06T23:35:54.129Z,43.50
2018-07-06T23:37:56.682Z,43.60
2018-07-06T23:39:59.282Z,43.60
2018-07-06T23:42:01.861Z,43.70
2018-07-06T23:44:04.430Z,43.60
2018-07-06T23:46:06.979Z,43.70
2018-07-06T23:48:09.678Z,43.80
2018-07-06T23:50:12.233Z,43.90
2018-07-06T23:52:14.781Z,44.00
2018-07-06T23:54:17.404Z,44.00
2018-07-06T23:56:19.973Z,44.00
2018-07-06T23:58:22.537Z,44.10
